Time;durP1;ratioP1;P1;durP2;ratioP2;P2;SDS_P1;SDS_P2;PMS_P1;PMS_P2;Temp;Humidity;BMP_temperature;BMP_pressure;BME280_temperature;BME280_humidity;BME280_pressure;Samples;Min_cycle;Max_cycle;Signal;HPM_P1;HPM_P2
2023/08/23 00:00:20;;;;;;;6.63;2.97;;;;;;;18.91;74.07;102084.72;7400860;19;20363;-80
2023/08/23 00:02:51;;;;;;;7.50;3.63;;;;;;;18.88;73.92;102087.84;7400328;19;19919;-80
2023/08/23 00:05:21;;;;;;;5.40;3.47;;;;;;;18.84;74.16;102089.31;7399380;19;19936;-80
2023/08/23 00:07:49;;;;;;;4.28;3.08;;;;;;;18.82;74.42;102085.91;7400009;19;20399;-80
2023/08/23 00:10:18;;;;;;;7.38;3.30;;;;;;;18.80;74.18;102081.72;7401240;19;19933;-80
2023/08/23 00:12:49;;;;;;;9.55;3.50;;;;;;;18.76;74.46;102083.16;7400191;19;19934;-80
2023/08/23 00:15:18;;;;;;;4.60;3.10;;;;;;;18.74;74.49;102083.34;7400431;19;19907;-79
2023/08/23 00:17:47;;;;;;;5.82;3.22;;;;;;;18.69;74.21;102077.66;7400165;19;20344;-80
2023/08/23 00:20:18;;;;;;;11.50;3.33;;;;;;;18.67;74.36;102076.19;7406107;19;19919;-80
2023/08/23 00:22:47;;;;;;;5.82;3.72;;;;;;;18.62;74.04;102084.13;7406954;19;19942;-80
2023/08/23 00:25:16;;;;;;;7.57;3.10;;;;;;;18.55;74.33;102078.63;7406961;19;19918;-80
2023/08/23 00:27:45;;;;;;;6.63;3.20;;;;;;;18.49;74.15;102084.84;7406652;19;19914;-80
2023/08/23 00:30:15;;;;;;;8.65;2.90;;;;;;;18.47;74.45;102089.66;7404143;19;19946;-80
2023/08/23 00:32:43;;;;;;;4.82;2.78;;;;;;;18.47;74.63;102097.84;7406721;19;20328;-80
2023/08/23 00:35:12;;;;;;;5.72;3.30;;;;;;;18.44;74.43;102087.31;7406840;19;19911;-80
2023/08/23 00:37:43;;;;;;;5.13;3.38;;;;;;;18.35;74.75;102092.09;7404731;19;19961;-80
2023/08/23 00:40:13;;;;;;;6.15;3.53;;;;;;;18.31;75.25;102095.41;7406871;19;19915;-79
2023/08/23 00:42:41;;;;;;;3.80;3.05;;;;;;;18.26;75.53;102084.25;7407040;19;19919;-80
2023/08/23 00:45:11;;;;;;;4.47;3.28;;;;;;;18.25;75.38;102085.31;7408601;19;19928;-81
2023/08/23 00:47:40;;;;;;;11.30;3.38;;;;;;;18.18;75.12;102087.13;7407793;19;19926;-80
2023/08/23 00:50:10;;;;;;;3.72;3.00;;;;;;;18.13;75.28;102095.91;7405824;19;19927;-80
2023/08/23 00:52:38;;;;;;;4.00;3.25;;;;;;;18.11;75.22;102098.00;7409556;19;19926;-80
2023/08/23 00:55:10;;;;;;;3.38;2.97;;;;;;;18.10;74.50;102088.13;7413382;19;19950;-80
2023/08/23 00:57:39;;;;;;;3.95;2.97;;;;;;;18.06;74.64;102106.75;7413576;19;19914;-80
2023/08/23 01:00:10;;;;;;;3.60;2.80;;;;;;;17.98;75.40;102095.16;7407006;19;19914;-80
2023/08/23 01:02:39;;;;;;;4.82;2.63;;;;;;;17.91;75.47;102092.34;7405978;19;19923;-80
2023/08/23 01:05:08;;;;;;;4.72;3.33;;;;;;;17.87;75.62;102092.91;7405612;19;19927;-80
2023/08/23 01:07:45;;;;;;;5.70;2.97;;;;;;;17.83;76.06;102091.63;7405249;19;19927;-80
2023/08/23 01:10:28;;;;;;;4.88;3.35;;;;;;;17.80;76.69;102094.75;7403422;19;19915;-80
2023/08/23 01:13:05;;;;;;;4.03;3.20;;;;;;;17.80;75.72;102087.41;7405497;19;20274;-80
2023/08/23 01:15:35;;;;;;;3.10;2.70;;;;;;;17.83;75.55;102089.75;7405300;19;19941;-80
2023/08/23 01:18:05;;;;;;;4.75;3.28;;;;;;;17.82;75.43;102088.06;7405648;19;20241;-80
2023/08/23 01:20:34;;;;;;;3.67;2.63;;;;;;;17.81;75.54;102088.28;7405120;19;19938;-80
2023/08/23 01:23:14;;;;;;;4.47;2.72;;;;;;;17.70;76.40;102084.16;7405862;19;19926;-80
2023/08/23 01:25:46;;;;;;;4.75;2.90;;;;;;;17.68;76.33;102086.25;7405377;19;19930;-79
2023/08/23 01:28:15;;;;;;;4.53;3.70;;;;;;;17.64;76.79;102082.22;7405068;19;19918;-80
2023/08/23 01:30:44;;;;;;;5.22;3.50;;;;;;;17.61;76.99;102085.31;7404842;19;20253;-80
2023/08/23 01:33:20;;;;;;;5.90;3.28;;;;;;;17.59;76.80;102081.97;7404470;19;19915;-80
2023/08/23 01:35:58;;;;;;;3.85;3.17;;;;;;;17.53;76.87;102083.53;7404931;19;19921;-80
2023/08/23 01:38:30;;;;;;;6.00;2.90;;;;;;;17.51;76.86;102088.34;7402217;19;19922;-80
2023/08/23 01:41:00;;;;;;;3.63;3.20;;;;;;;17.50;76.70;102088.53;7404053;19;19914;-80
2023/08/23 01:43:28;;;;;;;3.67;2.78;;;;;;;17.49;76.62;102090.41;7404713;19;19911;-80
2023/08/23 01:45:57;;;;;;;5.93;3.17;;;;;;;17.49;76.69;102089.56;7409421;19;19922;-80
2023/08/23 01:48:26;;;;;;;4.68;3.28;;;;;;;17.43;77.01;102085.72;7405708;19;19915;-80
2023/08/23 01:50:54;;;;;;;5.80;3.83;;;;;;;17.40;77.21;102083.38;7405857;19;19927;-80
2023/08/23 01:53:23;;;;;;;5.35;3.80;;;;;;;17.39;77.72;102083.56;7405307;19;19931;-80
2023/08/23 01:55:54;;;;;;;6.57;3.55;;;;;;;17.41;77.82;102076.06;7405520;19;19938;-79
2023/08/23 01:58:24;;;;;;;7.13;4.05;;;;;;;17.37;77.64;102072.88;7404810;19;19925;-80
2023/08/23 02:00:52;;;;;;;5.47;3.40;;;;;;;17.38;77.32;102071.00;7403655;19;19915;-79
2023/08/23 02:03:21;;;;;;;5.20;3.25;;;;;;;17.38;77.09;102076.47;7403115;19;19941;-80
2023/08/23 02:05:50;;;;;;;4.13;3.30;;;;;;;17.37;77.06;102074.78;7404997;19;19914;-80
2023/08/23 02:08:20;;;;;;;7.15;3.20;;;;;;;17.33;77.36;102078.91;7404372;19;19907;-80
2023/08/23 02:10:49;;;;;;;6.22;3.30;;;;;;;17.29;77.74;102083.06;7403009;19;19939;-80
2023/08/23 02:13:20;;;;;;;5.25;3.35;;;;;;;17.24;78.70;102072.75;7404601;19;19919;-80
2023/08/23 02:15:48;;;;;;;5.40;3.50;;;;;;;17.19;78.58;102075.19;7404354;19;19934;-80
2023/08/23 02:18:17;;;;;;;6.88;3.75;;;;;;;17.18;78.55;102084.38;7404404;19;19942;-80
2023/08/23 02:20:45;;;;;;;5.80;4.05;;;;;;;17.17;78.90;102083.53;7405513;19;19925;-80
2023/08/23 02:23:14;;;;;;;6.63;3.92;;;;;;;17.16;78.40;102087.31;7404986;19;19938;-80
2023/08/23 02:25:43;;;;;;;4.80;3.80;;;;;;;17.12;78.82;102077.84;7405103;19;19919;-80
2023/08/23 02:28:12;;;;;;;4.22;3.33;;;;;;;17.11;79.20;102078.88;7404783;19;19926;-80
2023/08/23 02:30:43;;;;;;;6.15;3.50;;;;;;;17.13;79.08;102081.38;7402586;19;19946;-80
2023/08/23 02:33:12;;;;;;;5.93;3.47;;;;;;;17.13;78.61;102076.78;7404540;19;19923;-80
2023/08/23 02:35:44;;;;;;;4.53;3.42;;;;;;;17.14;78.68;102080.34;7404164;19;19942;-80
2023/08/23 02:38:13;;;;;;;5.35;3.30;;;;;;;17.09;78.24;102064.59;7402953;19;19946;-80
2023/08/23 02:40:44;;;;;;;3.88;3.10;;;;;;;17.05;78.32;102066.00;7404157;19;19946;-80
2023/08/23 02:43:12;;;;;;;3.15;2.78;;;;;;;17.00;78.59;102067.63;7402330;19;19925;-79
2023/08/23 02:45:44;;;;;;;3.08;2.70;;;;;;;16.94;79.14;102063.78;7408494;19;19926;-80
2023/08/23 02:48:13;;;;;;;;;;;;;;;16.61;80.73;102060.59;7406559;19;20607;-80
2023/08/23 02:50:42;;;;;;;3.33;2.78;;;;;;;16.79;79.17;102058.34;7403237;19;19959;-80
2023/08/23 02:53:12;;;;;;;3.85;2.85;;;;;;;16.76;79.47;102057.88;7404146;19;19942;-80
2023/08/23 02:55:40;;;;;;;4.53;3.13;;;;;;;16.74;79.49;102058.06;7404075;19;20272;-80
2023/08/23 02:58:09;;;;;;;3.40;2.72;;;;;;;16.73;79.55;102055.53;7403930;19;19918;-80
2023/08/23 03:00:38;;;;;;;2.90;2.42;;;;;;;16.74;79.74;102057.19;7403544;19;19919;-80
2023/08/23 03:03:09;;;;;;;4.88;2.75;;;;;;;16.78;79.66;102056.63;7403985;19;19911;-79
2023/08/23 03:05:38;;;;;;;;;;;;;;;16.52;81.13;102047.25;7407164;19;19926;-80
2023/08/23 03:08:07;;;;;;;3.95;2.67;;;;;;;16.69;79.20;102057.81;7403193;19;20022;-80
2023/08/23 03:10:35;;;;;;;6.00;3.25;;;;;;;16.69;79.81;102046.91;7402621;19;19918;-80
2023/08/23 03:13:04;;;;;;;14.18;3.22;;;;;;;16.69;80.26;102051.50;7403690;19;19946;-80
2023/08/23 03:15:32;;;;;;;10.70;3.55;;;;;;;16.64;80.19;102053.94;7403911;19;19919;-80
2023/08/23 03:18:01;;;;;;;15.80;3.40;;;;;;;16.59;80.69;102059.94;7402702;19;20274;-80
2023/08/23 03:20:33;;;;;;;11.75;3.47;;;;;;;16.57;80.40;102066.56;7403278;19;19918;-81
2023/08/23 03:23:03;;;;;;;9.13;3.17;;;;;;;16.52;80.70;102066.31;7403249;19;19914;-80
2023/08/23 03:25:33;;;;;;;4.85;3.22;;;;;;;16.47;80.67;102066.84;7403660;19;19953;-80
2023/08/23 03:28:03;;;;;;;;;;;;;;;16.21;83.02;102069.16;7406001;19;19950;-80
2023/08/23 03:30:34;;;;;;;9.13;3.92;;;;;;;16.38;81.09;102057.09;7401661;19;20015;-80
2023/08/23 03:33:02;;;;;;;6.85;3.53;;;;;;;16.41;80.83;102064.88;7402207;19;19918;-80
2023/08/23 03:35:34;;;;;;;5.63;3.78;;;;;;;16.40;80.96;102063.19;7401963;19;19938;-80
2023/08/23 03:38:06;;;;;;;6.60;2.75;;;;;;;16.38;81.15;102065.25;7400537;19;19919;-80
2023/08/23 03:40:37;;;;;;;12.15;3.38;;;;;;;16.34;81.34;102063.94;7402498;19;19911;-80
2023/08/23 03:43:06;;;;;;;4.90;3.50;;;;;;;16.32;81.43;102061.38;7402710;19;19923;-79
2023/08/23 03:45:36;;;;;;;5.10;3.13;;;;;;;16.32;81.11;102055.94;7405619;19;19915;-79
2023/08/23 03:48:05;;;;;;;9.27;2.97;;;;;;;16.28;81.36;102060.06;7401770;19;19915;-79
2023/08/23 03:50:37;;;;;;;9.95;3.30;;;;;;;16.20;81.45;102060.16;7400671;19;19942;-80
2023/08/23 03:53:05;;;;;;;14.30;3.15;;;;;;;16.14;81.99;102063.59;7402826;19;19923;-80
2023/08/23 03:55:35;;;;;;;8.27;3.40;;;;;;;16.10;82.39;102065.00;7408247;19;19922;-80
2023/08/23 03:58:03;;;;;;;6.00;3.30;;;;;;;16.10;82.43;102064.16;7407582;19;19933;-80
2023/08/23 04:00:36;;;;;;;9.80;3.95;;;;;;;16.10;82.23;102062.28;7408649;19;19923;-79
2023/08/23 04:03:04;;;;;;;9.27;4.05;;;;;;;16.09;82.82;102057.88;7408959;19;19921;-79
2023/08/23 04:05:41;;;;;;;14.07;4.30;;;;;;;16.04;84.05;102057.59;7408525;19;19910;-80
2023/08/23 04:08:10;;;;;;;11.75;3.85;;;;;;;16.10;83.06;102054.13;7408382;19;19911;-80
2023/08/23 04:10:39;;;;;;;28.25;4.88;;;;;;;16.10;83.57;102056.00;7407543;19;19919;-80
2023/08/23 04:13:08;;;;;;;6.10;3.88;;;;;;;16.11;83.00;102057.69;7408324;19;19918;-79
2023/08/23 04:15:36;;;;;;;8.00;3.92;;;;;;;16.15;82.76;102048.13;7411174;19;20020;-80
2023/08/23 04:18:05;;;;;;;19.15;3.97;;;;;;;16.17;82.77;102046.94;7411000;19;19938;-80
2023/08/23 04:20:36;;;;;;;23.08;3.78;;;;;;;16.13;83.33;102045.63;7416750;19;19945;-80
2023/08/23 04:23:05;;;;;;;17.52;3.53;;;;;;;16.10;83.12;102051.41;7414790;19;19918;-79
2023/08/23 04:25:34;;;;;;;26.60;3.47;;;;;;;16.08;83.07;102049.91;7410085;19;19915;-80
2023/08/23 04:28:03;;;;;;;8.18;3.05;;;;;;;16.04;82.83;102054.88;7408148;19;19915;-80
2023/08/23 04:30:32;;;;;;;7.50;3.42;;;;;;;16.06;83.25;102050.09;7406367;19;19923;-80
2023/08/23 04:33:00;;;;;;;6.47;2.90;;;;;;;16.08;82.93;102056.19;7406874;19;19918;-79
2023/08/23 04:35:29;;;;;;;8.27;2.97;;;;;;;16.06;82.73;102055.53;7407904;19;19918;-79
2023/08/23 04:38:02;;;;;;;5.55;2.83;;;;;;;16.04;83.17;102059.47;7405861;19;19931;-79
2023/08/23 04:40:30;;;;;;;7.38;2.83;;;;;;;16.03;83.31;102053.19;7408443;19;19950;-79
2023/08/23 04:42:59;;;;;;;4.53;3.50;;;;;;;16.06;82.99;102044.66;7408697;19;19966;-78
2023/08/23 04:45:27;;;;;;;5.30;3.25;;;;;;;16.08;82.84;102053.50;7412509;19;19930;-79
2023/08/23 04:47:56;;;;;;;3.90;3.00;;;;;;;16.14;82.51;102044.56;7408239;19;19919;-79
2023/08/23 04:50:25;;;;;;;4.38;2.97;;;;;;;16.20;82.56;102045.72;7405498;19;19923;-79
2023/08/23 04:52:53;;;;;;;5.88;3.22;;;;;;;16.19;82.41;102047.59;7407345;19;20258;-78
2023/08/23 04:55:24;;;;;;;4.60;3.47;;;;;;;16.16;82.46;102055.28;7406390;19;20281;-79
2023/08/23 04:57:53;;;;;;;3.50;3.03;;;;;;;16.15;83.00;102062.59;7406550;19;19910;-79
2023/08/23 05:00:22;;;;;;;4.90;3.60;;;;;;;16.15;82.65;102064.44;7407015;19;19922;-78
2023/08/23 05:02:51;;;;;;;4.15;3.13;;;;;;;16.13;82.90;102061.94;7405958;19;19914;-79
2023/08/23 05:05:19;;;;;;;5.88;3.53;;;;;;;16.13;82.92;102066.53;7405698;19;19947;-79
2023/08/23 05:07:49;;;;;;;4.68;3.75;;;;;;;16.16;82.92;102068.88;7405342;19;19938;-80
2023/08/23 05:10:18;;;;;;;7.43;3.88;;;;;;;16.17;83.14;102068.69;7405144;19;19939;-80
2023/08/23 05:12:49;;;;;;;8.32;3.92;;;;;;;16.18;83.42;102069.53;7406330;19;19942;-79
2023/08/23 05:15:18;;;;;;;7.70;3.95;;;;;;;16.17;83.24;102067.84;7405459;19;19919;-79
2023/08/23 05:17:46;;;;;;;6.35;3.55;;;;;;;16.22;83.33;102063.53;7406266;19;19923;-79
2023/08/23 05:20:17;;;;;;;4.78;3.60;;;;;;;16.30;83.59;102063.47;7407039;19;19928;-80
2023/08/23 05:22:46;;;;;;;4.72;3.47;;;;;;;16.40;83.33;102062.31;7406167;19;19933;-79
2023/08/23 05:25:15;;;;;;;5.95;3.72;;;;;;;16.45;82.81;102059.91;7406573;19;19918;-80
2023/08/23 05:27:43;;;;;;;8.10;4.20;;;;;;;16.47;82.81;102063.28;7406419;19;20312;-79
2023/08/23 05:30:15;;;;;;;7.57;3.60;;;;;;;16.52;82.66;102066.31;7406291;19;20340;-79
2023/08/23 05:32:44;;;;;;;5.95;3.60;;;;;;;16.58;83.03;102060.13;7406519;19;20030;-79
2023/08/23 05:35:13;;;;;;;8.68;3.70;;;;;;;16.66;83.07;102051.88;7406196;19;19924;-79
2023/08/23 05:37:41;;;;;;;7.05;3.95;;;;;;;16.75;82.96;102053.47;7404714;19;19926;-80
2023/08/23 05:40:11;;;;;;;6.45;4.50;;;;;;;16.83;82.46;102064.25;7405731;19;19918;-80
2023/08/23 05:42:40;;;;;;;7.95;4.70;;;;;;;16.86;82.79;102063.03;7405432;19;19938;-79
2023/08/23 05:45:10;;;;;;;8.05;4.68;;;;;;;16.92;83.08;102051.38;7404347;19;19946;-79
2023/08/23 05:47:41;;;;;;;11.27;4.35;;;;;;;16.94;83.29;102041.16;7405173;19;19923;-79
2023/08/23 05:50:11;;;;;;;6.53;4.30;;;;;;;16.96;82.97;102056.25;7404759;19;19954;-79
2023/08/23 05:52:40;;;;;;;7.95;5.00;;;;;;;16.97;83.51;102054.38;7404719;19;20005;-79
2023/08/23 05:55:09;;;;;;;10.70;5.10;;;;;;;16.97;84.06;102049.78;7405111;19;19938;-79
2023/08/23 05:57:38;;;;;;;11.05;5.38;;;;;;;16.97;84.50;102054.38;7404252;19;20344;-79
2023/08/23 06:00:09;;;;;;;12.13;5.03;;;;;;;16.99;84.34;102050.44;7404516;19;20576;-79
2023/08/23 06:02:40;;;;;;;12.00;5.72;;;;;;;17.01;84.50;102058.41;7402478;19;19922;-79
2023/08/23 06:05:10;;;;;;;11.68;5.60;;;;;;;17.03;85.00;102064.50;7404005;19;19962;-79
2023/08/23 06:07:40;;;;;;;12.07;5.85;;;;;;;17.05;84.91;102062.44;7403949;19;20352;-79
2023/08/23 06:10:10;;;;;;;9.05;5.78;;;;;;;17.04;84.48;102061.59;7404109;19;19915;-79
2023/08/23 06:12:39;;;;;;;11.43;6.13;;;;;;;17.04;85.01;102061.59;7403837;19;19915;-79
2023/08/23 06:15:08;;;;;;;11.85;5.82;;;;;;;17.05;85.29;102057.84;7405030;19;19921;-80
2023/08/23 06:17:37;;;;;;;11.82;6.75;;;;;;;17.05;85.43;102063.28;7402055;19;19946;-79
2023/08/23 06:20:10;;;;;;;10.00;5.72;;;;;;;17.05;85.98;102055.09;7404672;19;19918;-79
2023/08/23 06:22:39;;;;;;;13.88;6.68;;;;;;;17.10;85.47;102060.84;7404919;19;19919;-80
2023/08/23 06:25:08;;;;;;;11.40;6.47;;;;;;;17.17;85.85;102066.38;7402548;19;19918;-80
2023/08/23 06:27:37;;;;;;;13.13;7.40;;;;;;;17.20;86.25;102066.84;7401058;19;20286;-80
2023/08/23 06:30:07;;;;;;;11.80;6.18;;;;;;;17.28;86.08;102059.56;7400564;19;19926;-80
2023/08/23 06:32:36;;;;;;;14.00;7.97;;;;;;;17.37;86.02;102064.72;7401195;19;19937;-79
2023/08/23 06:35:08;;;;;;;13.43;7.80;;;;;;;17.43;86.59;102065.84;7400787;19;19918;-80
2023/08/23 06:37:37;;;;;;;16.00;8.23;;;;;;;17.48;86.52;102063.34;7399729;19;19958;-80
2023/08/23 06:40:08;;;;;;;13.98;7.78;;;;;;;17.54;85.90;102062.59;7400655;19;19926;-79
2023/08/23 06:42:37;;;;;;;15.52;7.40;;;;;;;17.58;85.51;102064.78;7400690;19;19918;-79
2023/08/23 06:45:07;;;;;;;12.43;7.95;;;;;;;17.63;86.14;102066.91;7400563;19;19954;-79
2023/08/23 06:47:38;;;;;;;9.63;7.22;;;;;;;17.70;85.08;102076.00;7400809;19;20265;-79
2023/08/23 06:50:10;;;;;;;13.55;7.38;;;;;;;17.72;86.17;102060.31;7400454;19;19946;-79
2023/08/23 06:52:38;;;;;;;10.63;7.80;;;;;;;17.74;85.36;102055.47;7400746;19;19918;-80
2023/08/23 06:55:08;;;;;;;17.13;8.32;;;;;;;17.80;84.85;102072.94;7400132;19;19919;-80
2023/08/23 06:57:37;;;;;;;16.08;7.82;;;;;;;17.86;85.46;102067.53;7400292;19;19922;-80
2023/08/23 07:00:06;;;;;;;16.05;8.23;;;;;;;17.97;85.20;102069.75;7400188;19;19922;-79
2023/08/23 07:02:35;;;;;;;14.25;8.68;;;;;;;18.06;85.13;102068.59;7400200;19;19921;-79
2023/08/23 07:05:04;;;;;;;12.98;8.95;;;;;;;18.17;85.24;102072.63;7400487;19;19935;-80
2023/08/23 07:07:38;;;;;;;16.15;9.55;;;;;;;18.31;84.90;102076.31;7399883;19;19918;-79
2023/08/23 07:10:08;;;;;;;16.55;9.90;;;;;;;18.40;83.97;102066.94;7400208;19;20631;-79
2023/08/23 07:12:37;;;;;;;18.38;10.00;;;;;;;18.44;84.07;102073.69;7398630;19;19929;-80
2023/08/23 07:15:07;;;;;;;15.73;9.55;;;;;;;18.44;83.74;102068.22;7400409;19;19942;-79
2023/08/23 07:17:38;;;;;;;16.60;10.15;;;;;;;18.43;84.10;102080.19;7399944;19;19918;-79
2023/08/23 07:20:09;;;;;;;16.75;10.90;;;;;;;18.43;83.90;102080.19;7399746;19;19919;-79
2023/08/23 07:22:40;;;;;;;16.90;11.60;;;;;;;18.50;84.35;102084.66;7400207;19;19911;-80
2023/08/23 07:25:10;;;;;;;17.95;11.75;;;;;;;18.64;83.29;102082.06;7400266;19;19915;-79
2023/08/23 07:27:39;;;;;;;17.27;12.02;;;;;;;18.78;83.42;102089.25;7400047;19;20323;-79
2023/08/23 07:30:09;;;;;;;20.33;13.38;;;;;;;18.84;83.18;102093.91;7400696;19;20375;-79
2023/08/23 07:32:38;;;;;;;23.15;12.43;;;;;;;18.83;82.71;102090.34;7399161;19;19926;-79
2023/08/23 07:35:08;;;;;;;20.58;12.98;;;;;;;18.84;82.19;102093.91;7401431;19;19934;-79
2023/08/23 07:37:38;;;;;;;23.33;13.77;;;;;;;18.79;82.67;102090.94;7400887;19;19918;-79
2023/08/23 07:40:10;;;;;;;22.33;14.32;;;;;;;18.74;82.86;102097.00;7402942;19;19922;-79
2023/08/23 07:42:39;;;;;;;23.00;13.18;;;;;;;18.73;82.46;102099.94;7405019;19;19919;-79
2023/08/23 07:45:09;;;;;;;21.10;13.82;;;;;;;18.76;82.20;102103.13;7406895;19;19922;-80
2023/08/23 07:47:38;;;;;;;23.58;13.93;;;;;;;18.78;82.78;102101.03;7402589;19;19958;-79
2023/08/23 07:50:09;;;;;;;20.88;12.35;;;;;;;18.84;82.67;102102.97;7399364;19;19939;-80
2023/08/23 07:52:38;;;;;;;19.77;12.45;;;;;;;18.89;82.02;102105.94;7397599;19;19929;-79
2023/08/23 07:55:10;;;;;;;17.70;11.10;;;;;;;18.91;81.59;102100.25;7398570;19;19925;-79
2023/08/23 07:57:39;;;;;;;18.90;11.32;;;;;;;18.91;81.18;102101.09;7398192;19;19918;-79
2023/08/23 08:00:09;;;;;;;17.98;11.25;;;;;;;18.93;81.09;102099.03;7398107;19;19922;-79
2023/08/23 08:02:38;;;;;;;16.05;10.00;;;;;;;18.97;81.70;102097.56;7398338;19;19922;-79
2023/08/23 08:05:07;;;;;;;13.65;8.63;;;;;;;19.04;80.77;102098.44;7398379;19;19930;-79
2023/08/23 08:07:36;;;;;;;11.88;7.43;;;;;;;19.12;80.18;102102.88;7397916;19;19919;-79
2023/08/23 08:10:05;;;;;;;11.98;7.13;;;;;;;19.22;79.88;102110.69;7398147;19;20263;-79
2023/08/23 08:12:36;;;;;;;13.40;7.38;;;;;;;19.31;79.52;102101.28;7395976;19;19927;-79
2023/08/23 08:15:07;;;;;;;11.55;6.97;;;;;;;19.44;78.98;102106.84;7399263;19;19910;-79
2023/08/23 08:17:36;;;;;;;11.95;7.55;;;;;;;19.59;78.56;102112.97;7397796;19;19921;-79
2023/08/23 08:20:09;;;;;;;10.95;6.78;;;;;;;19.77;78.32;102112.38;7397873;19;19932;-79
2023/08/23 08:22:38;;;;;;;12.80;6.70;;;;;;;19.88;77.35;102106.31;7397381;19;20519;-79
2023/08/23 08:25:08;;;;;;;10.73;6.10;;;;;;;19.98;77.57;102109.47;7397468;19;19914;-79
2023/08/23 08:27:40;;;;;;;9.40;6.18;;;;;;;20.02;76.13;102102.50;7397769;19;20703;-79
2023/08/23 08:30:10;;;;;;;10.45;6.72;;;;;;;20.09;76.97;102102.53;7397672;19;19915;-79
2023/08/23 08:32:39;;;;;;;9.73;6.97;;;;;;;20.17;76.79;102110.53;7395553;19;19958;-79
2023/08/23 08:35:09;;;;;;;10.57;6.07;;;;;;;20.23;76.73;102112.44;7397333;19;19915;-78
2023/08/23 08:37:37;;;;;;;6.75;5.03;;;;;;;20.30;75.17;102118.78;7396031;19;19927;-79
2023/08/23 08:40:07;;;;;;;6.13;4.18;;;;;;;20.36;74.45;102117.94;7400084;19;19918;-79
2023/08/23 08:42:37;;;;;;;6.75;5.55;;;;;;;20.46;74.54;102115.59;7404268;19;19911;-78
2023/08/23 08:45:09;;;;;;;10.75;6.03;;;;;;;20.51;73.81;102114.97;7403981;19;19982;-79
2023/08/23 08:47:38;;;;;;;7.07;4.68;;;;;;;20.51;73.83;102113.06;7403695;19;19922;-80
2023/08/23 08:50:07;;;;;;;6.75;4.20;;;;;;;20.51;72.46;102106.75;7403465;19;19935;-80
2023/08/23 08:52:41;;;;;;;7.00;4.60;;;;;;;20.48;72.62;102116.25;7401677;19;19984;-80
2023/08/23 08:55:13;;;;;;;5.63;4.03;;;;;;;20.47;72.21;102111.81;7404307;19;19910;-80
2023/08/23 08:57:42;;;;;;;9.43;4.95;;;;;;;20.56;72.96;102117.91;7403791;19;19922;-79
2023/08/23 09:00:14;;;;;;;6.22;4.22;;;;;;;20.62;73.11;102106.94;7403578;19;19915;-80
2023/08/23 09:02:46;;;;;;;9.05;5.25;;;;;;;20.71;71.72;102111.13;7403671;19;19915;-79
2023/08/23 09:05:14;;;;;;;;;;;;;;;20.68;72.12;102106.09;7405728;19;20348;-80
2023/08/23 09:07:43;;;;;;;5.00;4.10;;;;;;;20.83;72.10;102109.47;7402585;19;19922;-80
2023/08/23 09:10:13;;;;;;;5.93;3.58;;;;;;;20.94;70.93;102107.09;7403047;19;19918;-80
2023/08/23 09:12:42;;;;;;;4.32;3.10;;;;;;;21.01;69.03;102111.47;7401402;19;19967;-79
2023/08/23 09:15:13;;;;;;;7.95;4.65;;;;;;;21.13;70.03;102108.97;7403103;19;19932;-78
2023/08/23 09:17:42;;;;;;;10.40;6.10;;;;;;;21.19;70.15;102117.16;7402921;19;19918;-78
2023/08/23 09:20:12;;;;;;;11.30;5.57;;;;;;;21.21;69.97;102114.19;7402775;19;19929;-79
2023/08/23 09:22:40;;;;;;;6.32;3.33;;;;;;;21.29;69.39;102116.69;7402315;19;19918;-78
2023/08/23 09:25:10;;;;;;;3.72;2.67;;;;;;;21.37;68.04;102116.44;7401987;19;19946;-78
2023/08/23 09:27:39;;;;;;;4.95;2.70;;;;;;;21.46;67.48;102106.91;7402786;19;19927;-79
2023/08/23 09:30:09;;;;;;;4.38;2.60;;;;;;;21.55;68.01;102104.75;7402666;19;19919;-78
2023/08/23 09:32:43;;;;;;;4.00;2.67;;;;;;;21.64;67.71;102109.78;7400929;19;19929;-79
2023/08/23 09:35:12;;;;;;;2.90;2.15;;;;;;;21.68;66.73;102104.69;7402370;19;19919;-79
2023/08/23 09:37:44;;;;;;;2.25;1.88;;;;;;;21.70;65.76;102108.88;7400691;19;19926;-78
2023/08/23 09:40:21;;;;;;;3.90;1.90;;;;;;;21.71;66.34;102096.84;7402673;19;19938;-79
2023/08/23 09:42:50;;;;;;;7.97;2.20;;;;;;;21.87;65.88;102090.00;7404724;19;20300;-78
2023/08/23 09:45:21;;;;;;;3.15;2.22;;;;;;;22.03;66.01;102086.75;7402025;19;20262;-78
2023/08/23 09:47:55;;;;;;;4.03;1.92;;;;;;;22.14;64.33;102085.16;7402239;19;19922;-78
2023/08/23 09:50:26;;;;;;;3.35;1.90;;;;;;;22.03;63.81;102091.38;7401294;19;19926;-79
2023/08/23 09:53:00;;;;;;;4.10;2.13;;;;;;;22.15;64.44;102081.34;7398673;19;20075;-79
2023/08/23 09:55:31;;;;;;;3.25;2.05;;;;;;;22.27;64.75;102089.69;7401641;19;19937;-79
2023/08/23 09:58:00;;;;;;;2.70;1.70;;;;;;;22.47;63.42;102090.38;7401985;19;19926;-79
2023/08/23 10:00:29;;;;;;;2.45;1.40;;;;;;;22.72;61.51;102087.59;7401716;19;19958;-79
2023/08/23 10:03:01;;;;;;;2.95;1.30;;;;;;;22.87;59.86;102088.06;7401670;19;19928;-78
2023/08/23 10:05:30;;;;;;;2.90;1.90;;;;;;;23.08;60.16;102086.78;7401538;19;20325;-77
2023/08/23 10:07:59;;;;;;;4.70;1.77;;;;;;;23.19;59.90;102092.34;7400998;19;19911;-78
2023/08/23 10:10:31;;;;;;;2.50;1.15;;;;;;;23.15;60.21;102079.28;7401589;19;19939;-78
2023/08/23 10:13:05;;;;;;;1.65;1.27;;;;;;;23.07;60.24;102085.94;7400248;19;19939;-78
2023/08/23 10:15:40;;;;;;;6.10;1.80;;;;;;;23.17;59.66;102083.47;7401551;19;20348;-78
2023/08/23 10:18:16;;;;;;;3.97;1.65;;;;;;;23.30;58.87;102085.22;7401936;19;19911;-78
2023/08/23 10:20:45;;;;;;;2.45;1.63;;;;;;;23.34;60.00;102097.44;7402055;19;19914;-78
2023/08/23 10:23:15;;;;;;;2.08;1.60;;;;;;;23.40;58.58;102094.59;7401916;19;19922;-78
2023/08/23 10:25:44;;;;;;;3.38;1.38;;;;;;;23.40;59.24;102080.00;7401169;19;19914;-78
2023/08/23 10:28:15;;;;;;;2.70;1.30;;;;;;;23.35;59.27;102080.69;7400998;19;19950;-79
2023/08/23 10:30:45;;;;;;;5.03;1.58;;;;;;;23.34;58.63;102078.19;7400864;19;19985;-78
2023/08/23 10:33:18;;;;;;;;;;;;;;;23.10;58.57;102076.38;7402260;19;19946;-78
2023/08/23 10:35:47;;;;;;;4.45;1.30;;;;;;;23.11;60.70;102083.56;7400520;19;19947;-78
2023/08/23 10:38:17;;;;;;;4.35;1.20;;;;;;;23.07;60.59;102069.44;7398986;19;19922;-78
2023/08/23 10:40:47;;;;;;;3.50;1.70;;;;;;;23.09;60.13;102078.28;7400508;19;19938;-79
2023/08/23 10:43:17;;;;;;;2.55;1.45;;;;;;;23.14;59.47;102069.34;7404487;19;20454;-78
2023/08/23 10:45:53;;;;;;;3.70;1.75;;;;;;;23.26;57.72;102065.59;7400480;19;19923;-79
2023/08/23 10:48:25;;;;;;;2.60;1.50;;;;;;;23.54;57.52;102058.69;7400261;19;19927;-78
2023/08/23 10:50:55;;;;;;;3.25;1.58;;;;;;;23.58;58.49;102065.38;7401895;19;19922;-78
2023/08/23 10:53:25;;;;;;;4.45;1.83;;;;;;;23.62;57.91;102056.44;7400049;19;19923;-78
2023/08/23 10:55:54;;;;;;;4.45;1.35;;;;;;;23.64;57.44;102056.22;7403559;19;19918;-78
2023/08/23 10:58:22;;;;;;;3.78;1.60;;;;;;;23.54;57.81;102056.78;7403443;19;19966;-79
2023/08/23 11:00:53;;;;;;;2.83;1.40;;;;;;;23.76;57.70;102051.56;7407613;19;19915;-78
2023/08/23 11:03:24;;;;;;;4.25;1.10;;;;;;;23.74;56.67;102049.03;7407451;19;19939;-78
2023/08/23 11:05:53;;;;;;;1.80;1.20;;;;;;;23.73;57.45;102052.88;7402172;19;20284;-78
2023/08/23 11:08:23;;;;;;;3.70;1.35;;;;;;;23.85;56.16;102040.00;7399284;19;19929;-78
2023/08/23 11:10:52;;;;;;;3.72;1.23;;;;;;;23.89;57.11;102045.84;7399787;19;20038;-78
2023/08/23 11:13:21;;;;;;;5.05;1.92;;;;;;;23.94;56.75;102041.34;7398632;19;20427;-78
2023/08/23 11:15:50;;;;;;;4.00;1.30;;;;;;;24.01;57.16;102040.34;7399695;19;20264;-78
2023/08/23 11:18:18;;;;;;;4.68;1.65;;;;;;;24.23;56.93;102041.50;7399559;19;19938;-79
2023/08/23 11:20:49;;;;;;;2.15;1.40;;;;;;;24.50;55.53;102044.59;7399755;19;20261;-78
2023/08/23 11:23:18;;;;;;;3.33;1.38;;;;;;;24.45;55.59;102038.97;7399722;19;19919;-78
2023/08/23 11:25:48;;;;;;;3.30;1.70;;;;;;;24.29;56.27;102052.38;7399022;19;19919;-79
2023/08/23 11:28:17;;;;;;;3.72;2.10;;;;;;;24.13;56.08;102050.31;7399239;19;20451;-78
2023/08/23 11:30:45;;;;;;;3.78;1.65;;;;;;;24.06;56.47;102040.50;7399219;19;19915;-78
2023/08/23 11:33:15;;;;;;;4.25;1.63;;;;;;;24.01;55.87;102041.19;7397763;19;20336;-78
2023/08/23 11:35:43;;;;;;;4.70;1.83;;;;;;;24.00;56.17;102033.16;7399043;19;19919;-78